Time;durP1;ratioP1;P1;durP2;ratioP2;P2;SDS_P1;SDS_P2;PMS_P1;PMS_P2;Temp;Humidity;BMP_temperature;BMP_pressure;BME280_temperature;BME280_humidity;BME280_pressure;Samples;Min_cycle;Max_cycle;Signal;HPM_P1;HPM_P2
2022/03/22 00:01:00;;;;;;;39.53;21.85;;;23.20;30.00;;;;;;6155130;28;83176;-66
2022/03/22 00:04:02;;;;;;;35.58;21.00;;;23.20;30.00;;;;;;6154283;28;83743;-65
2022/03/22 00:07:02;;;;;;;37.75;20.92;;;23.20;30.00;;;;;;6154466;28;82970;-66
2022/03/22 00:10:03;;;;;;;39.42;22.48;;;23.20;30.10;;;;;;6154292;28;83099;-65
2022/03/22 00:13:05;;;;;;;36.88;21.45;;;23.20;30.00;;;;;;6149013;28;83812;-65
2022/03/22 00:16:07;;;;;;;37.55;21.48;;;23.20;30.20;;;;;;6138191;28;83213;-65
2022/03/22 00:19:08;;;;;;;40.53;22.05;;;23.20;30.00;;;;;;6159531;28;83632;-63
2022/03/22 00:22:10;;;;;;;36.85;21.42;;;23.20;30.00;;;;;;6157608;28;82949;-63
2022/03/22 00:25:11;;;;;;;35.97;21.60;;;23.20;30.20;;;;;;6158944;28;83215;-65
2022/03/22 00:28:12;;;;;;;36.38;21.25;;;23.20;30.40;;;;;;6140502;28;83432;-64
2022/03/22 00:31:13;;;;;;;45.88;23.63;;;23.20;30.00;;;;;;6138553;28;84283;-64
2022/03/22 00:34:13;;;;;;;39.40;21.08;;;23.10;30.10;;;;;;6145953;28;84659;-65
2022/03/22 00:37:17;;;;;;;39.92;21.85;;;23.10;30.00;;;;;;6148864;28;83457;-65
2022/03/22 00:40:17;;;;;;;36.97;21.55;;;23.10;29.90;;;;;;6158622;28;84303;-64
2022/03/22 00:43:18;;;;;;;42.05;22.17;;;23.10;30.00;;;;;;6158452;28;82987;-65
2022/03/22 00:46:18;;;;;;;42.70;23.65;;;23.10;30.00;;;;;;6146517;28;83188;-64
2022/03/22 00:49:19;;;;;;;44.63;23.42;;;23.10;30.20;;;;;;6156916;28;83079;-64
2022/03/22 00:52:19;;;;;;;44.33;23.60;;;23.10;29.80;;;;;;6156046;28;83192;-66
2022/03/22 00:55:23;;;;;;;41.38;23.52;;;23.10;29.80;;;;;;6158468;28;83341;-64
2022/03/22 00:58:24;;;;;;;42.42;23.00;;;23.10;30.00;;;;;;6158740;28;83117;-64
2022/03/22 01:01:24;;;;;;;44.70;24.92;;;23.10;29.90;;;;;;6158226;28;83468;-63
2022/03/22 01:04:25;;;;;;;43.45;24.80;;;23.10;30.00;;;;;;6159016;28;83165;-64
2022/03/22 01:07:25;;;;;;;41.60;24.38;;;23.10;29.90;;;;;;6147502;28;83631;-66
2022/03/22 01:10:26;;;;;;;42.60;22.92;;;23.10;29.90;;;;;;6149488;28;82909;-63
2022/03/22 01:13:30;;;;;;;42.30;23.73;;;23.10;29.90;;;;;;6148077;28;83594;-62
2022/03/22 01:16:31;;;;;;;42.67;23.60;;;23.10;29.90;;;;;;6146272;28;89690;-65
2022/03/22 01:19:31;;;;;;;44.38;24.15;;;23.10;30.00;;;;;;6140644;28;83172;-65
2022/03/22 01:22:32;;;;;;;39.17;23.08;;;23.10;29.90;;;;;;6145474;28;83689;-65
2022/03/22 01:25:34;;;;;;;40.22;23.73;;;23.00;30.30;;;;;;6133783;28;84544;-65
2022/03/22 01:28:35;;;;;;;44.13;24.10;;;23.10;30.30;;;;;;6156562;28;83066;-65
2022/03/22 01:31:35;;;;;;;44.38;24.42;;;23.00;30.40;;;;;;6157422;28;83053;-65
2022/03/22 01:34:36;;;;;;;43.15;23.50;;;23.00;30.30;;;;;;6156653;28;83154;-65
2022/03/22 01:37:36;;;;;;;42.97;23.75;;;23.10;30.40;;;;;;6158135;28;83326;-64
2022/03/22 01:40:37;;;;;;;42.33;24.75;;;23.00;30.30;;;;;;6140238;28;82952;-65
2022/03/22 01:43:37;;;;;;;44.30;24.70;;;23.00;30.50;;;;;;6134352;28;83175;-64
2022/03/22 01:46:38;;;;;;;42.15;23.60;;;23.00;30.10;;;;;;6157223;28;83197;-64
2022/03/22 01:49:38;;;;;;;42.40;23.67;;;23.00;30.20;;;;;;6150084;28;83174;-64
2022/03/22 01:52:43;;;;;;;40.50;24.92;;;23.00;30.10;;;;;;6132989;28;82689;-65
2022/03/22 01:55:44;;;;;;;42.00;23.13;;;23.00;30.30;;;;;;6148908;28;83368;-63
2022/03/22 01:58:44;;;;;;;42.67;23.25;;;23.00;30.10;;;;;;6157336;28;83376;-64
2022/03/22 02:08:24;;;;;;;40.83;22.50;;;23.00;30.40;;;;;;6132828;28;84180;-64
2022/03/22 02:11:25;;;;;;;40.72;23.65;;;23.00;30.20;;;;;;6132578;28;84126;-64
2022/03/22 02:14:26;;;;;;;39.90;22.50;;;23.00;30.60;;;;;;6132676;28;82987;-64
2022/03/22 02:17:26;;;;;;;41.20;23.02;;;23.00;30.30;;;;;;6152683;28;83378;-63
2022/03/22 02:20:27;;;;;;;42.47;22.15;;;23.00;30.50;;;;;;6151530;28;84454;-62
2022/03/22 02:23:27;;;;;;;40.72;22.23;;;23.00;30.30;;;;;;6150597;28;83845;-63
2022/03/22 02:26:28;;;;;;;41.30;23.02;;;23.00;30.50;;;;;;6144078;28;84253;-63
2022/03/22 02:29:28;;;;;;;38.78;22.55;;;23.00;30.10;;;;;;6139660;28;84037;-64
2022/03/22 02:32:29;;;;;;;44.47;23.38;;;23.00;30.20;;;;;;6132846;28;83034;-64
2022/03/22 02:35:30;;;;;;;40.22;23.42;;;22.90;30.00;;;;;;6132094;28;83215;-63
2022/03/22 02:38:30;;;;;;;36.58;22.40;;;22.90;29.80;;;;;;6140159;28;83143;-64
2022/03/22 02:41:32;;;;;;;46.55;24.83;;;22.90;29.70;;;;;;6156343;28;82904;-64
2022/03/22 02:44:32;;;;;;;38.08;22.10;;;22.90;30.40;;;;;;6155827;28;83271;-67
2022/03/22 02:47:34;;;;;;;42.35;22.73;;;22.90;29.80;;;;;;6156571;28;83465;-64
2022/03/22 02:50:34;;;;;;;42.58;24.33;;;22.90;29.90;;;;;;6147413;28;83462;-62
2022/03/22 02:53:35;;;;;;;37.55;22.38;;;22.90;30.00;;;;;;6150885;28;83211;-62
2022/03/22 02:56:36;;;;;;;37.95;22.27;;;22.90;29.60;;;;;;6156055;28;82949;-63
2022/03/22 02:59:36;;;;;;;40.13;23.35;;;22.90;29.90;;;;;;6155353;28;84226;-63
2022/03/22 03:02:36;;;;;;;42.78;24.58;;;22.90;29.50;;;;;;6154929;28;83220;-63
2022/03/22 03:05:37;;;;;;;39.03;22.23;;;22.90;29.30;;;;;;6134908;28;83030;-64
2022/03/22 03:08:39;;;;;;;40.35;22.95;;;22.90;29.70;;;;;;6142003;28;84174;-63
2022/03/22 03:11:39;;;;;;;41.25;23.92;;;22.90;29.50;;;;;;6132114;28;83073;-63
2022/03/22 03:14:40;;;;;;;45.97;25.10;;;22.90;29.60;;;;;;6144280;28;83406;-63
2022/03/22 03:17:41;;;;;;;46.33;24.73;;;22.80;29.40;;;;;;6154611;28;83098;-63
2022/03/22 03:20:41;;;;;;;46.53;25.50;;;22.90;29.40;;;;;;6155526;28;84003;-63
2022/03/22 03:23:42;;;;;;;43.35;25.30;;;22.80;29.70;;;;;;6142347;28;83046;-62
2022/03/22 03:26:42;;;;;;;51.67;25.80;;;22.80;29.70;;;;;;6154343;28;83129;-63
2022/03/22 03:29:43;;;;;;;49.53;26.08;;;22.80;29.80;;;;;;6149271;28;82964;-62
2022/03/22 03:32:43;;;;;;;44.22;25.88;;;22.80;29.90;;;;;;6155739;28;83598;-62
2022/03/22 03:35:44;;;;;;;47.72;25.73;;;22.80;29.70;;;;;;6154622;28;83451;-62
2022/03/22 03:38:45;;;;;;;42.90;23.42;;;22.80;29.60;;;;;;6154744;28;83544;-63
2022/03/22 03:41:55;;;;;;;46.17;25.30;;;22.80;29.70;;;;;;6155658;28;82924;-63
2022/03/22 03:48:15;;;;;;;43.00;25.35;;;22.80;30.00;;;;;;6158931;28;83400;-63
2022/03/22 03:51:15;;;;;;;49.38;25.83;;;22.80;29.30;;;;;;6141779;28;83987;-63
2022/03/22 03:54:16;;;;;;;48.85;25.70;;;22.80;29.40;;;;;;6135290;28;83343;-63
2022/03/22 03:57:16;;;;;;;41.40;22.70;;;22.80;29.50;;;;;;6147056;28;83308;-63
2022/03/22 04:00:17;;;;;;;37.67;21.15;;;22.90;30.30;;;;;;6134879;28;82864;-63
2022/03/22 04:03:17;;;;;;;36.10;21.50;;;22.90;31.30;;;;;;6135488;28;82895;-64
2022/03/22 04:06:18;;;;;;;33.75;20.08;;;22.90;31.60;;;;;;6148879;28;84577;-63
2022/03/22 04:09:18;;;;;;;37.67;20.55;;;22.90;33.30;;;;;;6157437;28;83076;-63
2022/03/22 04:12:19;;;;;;;33.42;18.58;;;22.90;33.30;;;;;;6154040;28;84275;-63
2022/03/22 04:15:20;;;;;;;34.17;19.73;;;22.90;31.80;;;;;;6158591;28;84214;-62
2022/03/22 04:18:21;;;;;;;36.83;21.05;;;23.00;33.50;;;;;;6142301;28;83961;-63
2022/03/22 04:21:21;;;;;;;38.88;21.30;;;23.00;33.40;;;;;;6150172;28;84981;-63
2022/03/22 04:24:22;;;;;;;39.78;21.65;;;23.00;32.70;;;;;;6135408;28;83185;-63
2022/03/22 04:34:19;;;;;;;38.13;22.27;;;23.20;31.80;;;;;;6158652;28;83383;-63
2022/03/22 04:37:20;;;;;;;39.47;23.13;;;23.20;31.50;;;;;;6158263;28;84252;-64
2022/03/22 04:40:21;;;;;;;38.05;22.48;;;23.20;31.00;;;;;;6158945;28;82870;-63
2022/03/22 04:43:22;;;;;;;40.10;22.42;;;23.30;30.90;;;;;;6148995;28;83063;-62
2022/03/22 04:46:22;;;;;;;42.25;23.08;;;23.30;30.80;;;;;;6137266;28;83227;-66
2022/03/22 04:49:23;;;;;;;42.63;22.92;;;23.40;30.50;;;;;;6141887;28;82837;-63
2022/03/22 04:59:06;;;;;;;41.47;22.98;;;23.40;30.20;;;;;;6154551;28;87536;-66
2022/03/22 05:02:07;;;;;;;49.67;24.77;;;23.40;30.80;;;;;;6139363;28;83081;-65
2022/03/22 05:05:07;;;;;;;44.72;23.92;;;23.50;30.70;;;;;;6141621;28;83043;-65
2022/03/22 05:08:08;;;;;;;43.67;23.13;;;23.50;30.80;;;;;;6137645;28;83870;-65
2022/03/22 05:11:08;;;;;;;38.85;23.17;;;23.50;30.90;;;;;;6156591;28;83273;-76
2022/03/22 05:14:09;;;;;;;46.33;25.40;;;23.50;30.60;;;;;;6141358;28;83256;-67
2022/03/22 05:17:11;;;;;;;44.65;25.15;;;23.50;30.40;;;;;;6150101;28;84031;-67
2022/03/22 05:20:12;;;;;;;42.67;25.23;;;23.60;30.30;;;;;;6141488;28;90657;-68
2022/03/22 05:23:12;;;;;;;49.97;27.60;;;23.60;30.40;;;;;;6156004;28;83166;-67
2022/03/22 05:26:13;;;;;;;46.92;27.85;;;23.60;30.00;;;;;;6151861;28;83126;-67
2022/03/22 05:29:14;;;;;;;46.95;25.65;;;23.60;30.20;;;;;;6147383;28;84423;-68
2022/03/22 05:32:14;;;;;;;46.78;26.88;;;23.60;30.30;;;;;;6151465;28;83146;-68
2022/03/22 05:35:15;;;;;;;48.42;28.33;;;23.60;30.30;;;;;;6147547;28;82852;-67
2022/03/22 05:38:15;;;;;;;48.38;27.33;;;23.60;30.30;;;;;;6141452;28;83029;-68
2022/03/22 05:41:16;;;;;;;48.72;28.08;;;23.70;30.60;;;;;;6142454;28;82989;-68
2022/03/22 05:44:17;;;;;;;45.88;25.55;;;23.70;30.80;;;;;;6141135;28;83584;-66
2022/03/22 05:47:17;;;;;;;48.50;27.13;;;23.80;30.70;;;;;;6136071;28;82963;-67
2022/03/22 05:50:17;;;;;;;45.85;25.50;;;23.80;30.80;;;;;;6134162;28;83087;-65
2022/03/22 05:53:18;;;;;;;48.97;27.52;;;23.80;30.50;;;;;;6140896;28;84042;-66
2022/03/22 05:56:18;;;;;;;50.28;28.75;;;23.90;30.80;;;;;;6143689;28;83603;-66
2022/03/22 05:59:19;;;;;;;53.35;28.05;;;23.90;30.90;;;;;;6149414;28;83980;-70
2022/03/22 06:02:19;;;;;;;50.97;27.98;;;23.80;30.80;;;;;;6157265;28;83997;-72
2022/03/22 06:05:20;;;;;;;51.03;29.60;;;23.90;31.10;;;;;;6157803;28;84020;-77
2022/03/22 06:08:20;;;;;;;53.80;29.25;;;23.80;30.60;;;;;;6155553;28;83564;-67
2022/03/22 06:11:21;;;;;;;50.75;28.75;;;23.80;30.60;;;;;;6150956;28;83530;-68
2022/03/22 06:14:22;;;;;;;46.63;27.48;;;23.80;30.50;;;;;;6157393;28;83190;-67
2022/03/22 06:17:22;;;;;;;54.58;28.63;;;23.80;30.50;;;;;;6156368;28;84034;-64
2022/03/22 06:20:26;;;;;;;55.05;28.98;;;23.80;30.20;;;;;;6145100;28;83614;-69
2022/03/22 06:23:26;;;;;;;55.13;30.02;;;23.80;30.40;;;;;;6141510;28;83203;-72
2022/03/22 06:26:27;;;;;;;53.53;28.90;;;23.80;31.10;;;;;;6145132;28;84550;-66
2022/03/22 06:29:27;;;;;;;51.13;29.17;;;23.90;31.20;;;;;;6144439;28;82932;-77
2022/03/22 06:32:28;;;;;;;52.70;28.80;;;23.80;30.80;;;;;;6143843;28;83521;-70
2022/03/22 06:35:28;;;;;;;56.60;29.00;;;23.80;30.90;;;;;;6137029;28;84062;-82
2022/03/22 06:38:32;;;;;;;51.30;28.73;;;23.80;30.70;;;;;;6143387;28;83282;-67
2022/03/22 06:41:32;;;;;;;63.60;32.00;;;23.70;30.70;;;;;;6136612;28;84109;-66
2022/03/22 06:44:37;;;;;;;52.97;29.85;;;23.70;30.20;;;;;;6142361;28;84251;-67
2022/03/22 06:47:40;;;;;;;56.50;28.73;;;23.70;30.00;;;;;;6148657;28;83549;-67
2022/03/22 06:50:42;;;;;;;55.80;30.25;;;23.70;30.00;;;;;;6156095;28;83156;-67
2022/03/22 06:53:43;;;;;;;58.85;29.38;;;23.70;30.10;;;;;;6155783;28;83413;-68
2022/03/22 06:56:44;;;;;;;54.67;30.23;;;23.70;30.30;;;;;;6154639;28;85213;-67
2022/03/22 06:59:45;;;;;;;51.03;29.10;;;23.70;30.50;;;;;;6143563;28;83472;-65
2022/03/22 07:02:45;;;;;;;51.05;26.27;;;23.70;30.80;;;;;;6154848;28;83282;-64
2022/03/22 07:05:46;;;;;;;54.53;28.38;;;23.60;30.80;;;;;;6142611;28;82881;-64
2022/03/22 07:08:47;;;;;;;54.08;27.33;;;23.70;30.70;;;;;;6152936;28;84047;-63
2022/03/22 07:11:49;;;;;;;59.90;28.58;;;23.70;30.90;;;;;;6135473;28;82903;-63
2022/03/22 07:14:50;;;;;;;51.65;28.63;;;23.70;31.00;;;;;;6145416;28;83188;-64
2022/03/22 07:17:52;;;;;;;49.30;28.02;;;23.70;30.90;;;;;;6146700;28;82867;-65
2022/03/22 07:20:53;;;;;;;50.70;28.48;;;23.70;30.80;;;;;;6148140;28;83028;-65
2022/03/22 07:23:53;;;;;;;48.45;26.70;;;23.70;30.80;;;;;;6153951;28;82711;-64
2022/03/22 07:26:54;;;;;;;50.05;27.55;;;23.70;31.10;;;;;;6131914;28;83122;-64
2022/03/22 07:29:56;;;;;;;45.10;25.20;;;23.70;30.80;;;;;;6144281;28;83040;-66
2022/03/22 07:32:57;;;;;;;46.50;24.77;;;23.70;30.90;;;;;;6142000;28;84218;-68
2022/03/22 07:35:58;;;;;;;48.95;25.52;;;23.70;30.80;;;;;;6143460;28;85021;-70
2022/03/22 07:38:58;;;;;;;41.92;24.20;;;23.70;30.80;;;;;;6141727;28;83599;-68
2022/03/22 07:41:59;;;;;;;44.45;22.67;;;23.70;30.60;;;;;;6153715;28;85809;-66
2022/03/22 07:45:00;;;;;;;42.08;23.00;;;23.70;30.70;;;;;;6155005;28;83087;-68
2022/03/22 07:48:01;;;;;;;46.40;25.92;;;23.70;30.90;;;;;;6155029;28;83080;-68
2022/03/22 07:54:21;;;;;;;56.90;30.35;;;23.60;29.70;;;;;;6156206;28;84748;-67
2022/03/22 07:57:22;;;;;;;54.53;31.08;;;23.50;29.30;;;;;;6156812;28;83555;-67
2022/03/22 08:00:22;;;;;;;68.13;33.45;;;23.40;28.90;;;;;;6139624;28;83139;-67
2022/03/22 08:03:23;;;;;;;61.55;33.50;;;23.40;28.90;;;;;;6146040;28;83138;-67
2022/03/22 08:06:23;;;;;;;61.65;34.28;;;23.30;28.30;;;;;;6140298;28;83613;-67
2022/03/22 08:09:24;;;;;;;66.72;33.15;;;23.20;28.40;;;;;;6136336;28;82906;-67
2022/03/22 08:12:24;;;;;;;59.97;35.38;;;23.20;28.10;;;;;;6139890;28;83463;-65
2022/03/22 08:15:25;;;;;;;63.17;33.97;;;23.20;28.30;;;;;;6145764;28;83005;-66
2022/03/22 08:18:26;;;;;;;64.80;34.17;;;23.20;28.20;;;;;;6147508;28;82995;-66
2022/03/22 08:21:26;;;;;;;67.97;34.58;;;23.10;27.80;;;;;;6141872;28;86190;-67
2022/03/22 08:24:27;;;;;;;60.47;33.83;;;23.20;28.10;;;;;;6135028;28;83167;-66
2022/03/22 08:27:27;;;;;;;58.42;32.97;;;23.20;28.10;;;;;;6135524;28;84446;-68
2022/03/22 08:30:28;;;;;;;49.55;27.50;;;23.10;28.20;;;;;;6133731;28;83399;-68
2022/03/22 08:33:28;;;;;;;37.90;22.08;;;23.20;30.10;;;;;;6142326;28;83473;-69
2022/03/22 08:36:29;;;;;;;32.15;18.90;;;23.20;31.60;;;;;;6154249;28;83115;-70
2022/03/22 08:39:29;;;;;;;35.15;18.83;;;23.20;32.20;;;;;;6151886;28;83902;-70
2022/03/22 08:42:30;;;;;;;31.45;17.92;;;23.20;32.40;;;;;;6151881;28;83489;-69
2022/03/22 08:45:32;;;;;;;28.40;15.93;;;23.20;33.40;;;;;;6156155;28;82888;-70
2022/03/22 08:48:34;;;;;;;29.65;16.25;;;23.20;34.50;;;;;;6157686;28;83107;-73
2022/03/22 08:51:35;;;;;;;29.17;15.05;;;23.30;34.40;;;;;;6157700;28;83152;-70
2022/03/22 08:54:35;;;;;;;24.40;13.88;;;23.40;35.20;;;;;;6158901;28;82777;-69
2022/03/22 08:57:36;;;;;;;22.70;13.77;;;23.50;36.20;;;;;;6152537;28;83102;-68
2022/03/22 09:00:36;;;;;;;23.95;12.85;;;23.60;36.20;;;;;;6151789;28;83323;-68
2022/03/22 09:03:38;;;;;;;18.13;11.07;;;23.70;36.90;;;;;;6139057;28;83452;-68
2022/03/22 09:06:38;;;;;;;18.55;10.68;;;23.80;36.70;;;;;;6152800;28;83085;-69
2022/03/22 09:09:39;;;;;;;15.50;9.50;;;23.90;36.70;;;;;;6148460;28;83154;-69
2022/03/22 09:12:39;;;;;;;15.88;9.27;;;23.90;36.80;;;;;;6150456;28;83998;-69
2022/03/22 09:15:40;;;;;;;13.73;9.13;;;24.00;37.00;;;;;;6161321;28;80588;-69
2022/03/22 09:18:41;;;;;;;14.82;9.50;;;24.00;37.10;;;;;;6161532;28;80482;-68
2022/03/22 09:21:41;;;;;;;14.77;8.43;;;24.00;36.80;;;;;;6161359;28;80481;-68
2022/03/22 09:24:42;;;;;;;18.02;10.07;;;24.10;36.80;;;;;;6160960;28;80661;-68
2022/03/22 09:27:42;;;;;;;14.10;8.23;;;24.00;36.40;;;;;;6154546;28;83210;-70
2022/03/22 09:30:45;;;;;;;12.18;6.95;;;24.00;37.30;;;;;;6161436;28;82224;-71
2022/03/22 09:33:48;;;;;;;11.27;7.07;;;24.10;37.70;;;;;;6150927;28;80404;-71
2022/03/22 09:36:49;;;;;;;16.00;9.30;;;24.10;37.50;;;;;;6159676;28;80307;-72
2022/03/22 09:39:49;;;;;;;13.15;7.40;;;24.10;36.80;;;;;;6156709;28;87832;-71
2022/03/22 09:42:50;;;;;;;11.10;7.15;;;24.20;37.70;;;;;;6161416;28;81120;-72
2022/03/22 09:45:51;;;;;;;9.00;6.03;;;24.20;38.00;;;;;;6160272;28;80664;-70
2022/03/22 09:48:51;;;;;;;9.05;5.82;;;24.30;37.90;;;;;;6157670;28;81403;-71
2022/03/22 09:51:52;;;;;;;12.13;6.85;;;24.30;37.90;;;;;;6161629;28;80300;-73
2022/03/22 09:54:52;;;;;;;12.43;6.32;;;24.30;37.20;;;;;;6158220;28;81821;-69
2022/03/22 09:57:53;;;;;;;11.93;6.10;;;24.30;37.90;;;;;;6137422;28;80319;-70
2022/03/22 10:00:54;;;;;;;9.50;6.03;;;24.40;38.30;;;;;;6161112;28;81102;-69
2022/03/22 10:03:54;;;;;;;7.65;5.00;;;24.40;38.40;;;;;;6159668;28;82798;-70
2022/03/22 10:06:57;;;;;;;8.85;5.78;;;24.40;38.80;;;;;;6160185;28;84977;-68
2022/03/22 10:10:02;;;;;;;9.93;5.57;;;24.40;38.90;;;;;;6151999;28;80595;-69
2022/03/22 10:13:04;;;;;;;9.82;6.00;;;24.40;39.00;;;;;;6142550;28;80213;-68
2022/03/22 10:16:04;;;;;;;9.65;6.35;;;24.40;39.10;;;;;;6156028;28;81515;-68
2022/03/22 10:19:05;;;;;;;8.25;5.45;;;24.40;39.20;;;;;;6159350;28;80430;-68
2022/03/22 10:22:10;;;;;;;10.57;5.63;;;24.40;39.30;;;;;;6139977;28;81751;-71
2022/03/22 10:25:10;;;;;;;7.50;5.20;;;24.50;39.50;;;;;;6148107;28;82204;-70
2022/03/22 10:28:11;;;;;;;7.50;5.22;;;24.50;39.60;;;;;;6151609;28;81528;-71
2022/03/22 10:31:11;;;;;;;8.35;5.07;;;24.50;39.70;;;;;;6148862;28;80715;-70
2022/03/22 10:34:12;;;;;;;10.75;4.88;;;24.50;39.70;;;;;;6147160;28;81581;-72
2022/03/22 10:37:12;;;;;;;18.23;5.80;;;24.50;39.90;;;;;;6143454;28;80746;-68
2022/03/22 10:40:13;;;;;;;11.38;6.07;;;24.60;39.30;;;;;;6146523;28;80288;-70
2022/03/22 10:43:13;;;;;;;12.30;6.40;;;24.60;38.30;;;;;;6148611;28;80567;-70
2022/03/22 10:46:14;;;;;;;11.55;7.40;;;24.60;37.50;;;;;;6154062;28;81446;-71
2022/03/22 10:49:14;;;;;;;13.38;7.03;;;24.70;36.80;;;;;;6153108;28;81828;-70
2022/03/22 10:52:16;;;;;;;18.65;7.38;;;24.70;36.40;;;;;;6158189;28;80580;-70
2022/03/22 10:55:19;;;;;;;12.13;7.38;;;24.70;36.00;;;;;;6156979;28;80957;-69
2022/03/22 10:58:20;;;;;;;14.48;7.65;;;24.80;35.90;;;;;;6160060;28;81492;-70
2022/03/22 11:01:21;;;;;;;14.63;7.55;;;24.80;35.60;;;;;;6160082;28;80722;-70
2022/03/22 11:04:21;;;;;;;13.13;7.70;;;24.80;35.40;;;;;;6144481;28;80691;-70
2022/03/22 11:07:24;;;;;;;11.40;7.80;;;24.80;35.20;;;;;;6148998;28;83235;-69
2022/03/22 11:10:30;;;;;;;15.73;7.97;;;24.90;34.80;;;;;;6154492;28;80395;-69
2022/03/22 11:13:31;;;;;;;13.07;7.70;;;24.90;35.10;;;;;;6160107;28;80645;-68
2022/03/22 11:16:32;;;;;;;12.25;8.10;;;24.90;34.70;;;;;;6159992;28;80685;-71
2022/03/22 11:19:33;;;;;;;13.43;7.80;;;24.90;34.70;;;;;;6157503;28;80602;-71
2022/03/22 11:22:33;;;;;;;14.40;8.07;;;25.00;34.70;;;;;;6147702;28;80247;-71
2022/03/22 11:25:37;;;;;;;11.88;7.93;;;25.00;34.50;;;;;;6152090;28;80423;-70
2022/03/22 11:28:38;;;;;;;12.35;8.10;;;25.00;34.40;;;;;;6138040;28;81292;-68
2022/03/22 11:31:39;;;;;;;13.40;7.85;;;25.00;34.40;;;;;;6152483;28;80963;-69
2022/03/22 11:34:39;;;;;;;15.13;8.43;;;25.10;35.00;;;;;;6159443;28;87728;-68
2022/03/22 11:37:40;;;;;;;10.95;7.18;;;25.00;34.20;;;;;;6159774;28;80551;-69
2022/03/22 11:44:00;;;;;;;12.57;7.43;;;25.10;34.30;;;;;;6149484;28;80556;-69
2022/03/22 11:47:01;;;;;;;13.82;7.90;;;25.10;34.10;;;;;;6134742;28;80249;-69
2022/03/22 11:50:01;;;;;;;10.23;7.18;;;25.10;34.10;;;;;;6151012;28;80638;-68
2022/03/22 11:53:02;;;;;;;12.25;6.65;;;25.10;34.20;;;;;;6159193;28;81423;-69
2022/03/22 11:56:02;;;;;;;9.10;6.25;;;25.20;34.30;;;;;;6159477;28;80222;-70
2022/03/22 11:59:03;;;;;;;10.35;6.75;;;25.20;34.40;;;;;;6158797;28;80228;-70
2022/03/22 12:02:04;;;;;;;13.68;6.57;;;25.10;34.10;;;;;;6157631;28;81965;-70
2022/03/22 12:05:04;;;;;;;12.20;6.88;;;25.20;34.10;;;;;;6159188;28;80421;-71
2022/03/22 12:08:05;;;;;;;13.20;6.93;;;25.20;34.10;;;;;;6156529;28;80886;-70
2022/03/22 12:11:05;;;;;;;8.70;6.00;;;25.30;34.20;;;;;;6164410;28;80144;-69
2022/03/22 12:14:06;;;;;;;13.05;7.05;;;25.30;34.20;;;;;;6163722;28;80435;-68
2022/03/22 12:17:06;;;;;;;10.63;6.50;;;25.30;34.20;;;;;;6139298;28;80415;-68
2022/03/22 12:20:11;;;;;;;8.18;6.05;;;25.30;34.10;;;;;;6153640;28;81343;-69
2022/03/22 12:23:11;;;;;;;10.15;6.45;;;25.30;34.00;;;;;;6138264;28;80387;-70
2022/03/22 12:26:12;;;;;;;11.27;7.00;;;25.30;34.00;;;;;;6149831;28;80399;-70
2022/03/22 12:29:13;;;;;;;10.07;6.40;;;25.30;34.00;;;;;;6145374;28;80576;-71
2022/03/22 12:32:13;;;;;;;8.65;6.20;;;25.30;34.20;;;;;;6154952;28;81397;-71
2022/03/22 12:35:14;;;;;;;10.63;6.35;;;25.30;34.20;;;;;;6156478;28;80963;-68
2022/03/22 12:38:15;;;;;;;12.63;6.45;;;25.30;34.10;;;;;;6151200;28;81564;-67
2022/03/22 12:41:16;;;;;;;11.40;6.45;;;25.30;34.20;;;;;;6161037;28;80844;-67
2022/03/22 12:44:16;;;;;;;15.07;6.45;;;25.30;34.00;;;;;;6155027;28;80747;-68
2022/03/22 12:47:19;;;;;;;11.10;6.47;;;25.30;34.10;;;;;;6157520;28;81291;-69
2022/03/22 12:50:20;;;;;;;11.90;6.78;;;25.30;34.10;;;;;;6162244;28;80417;-67
2022/03/22 12:53:22;;;;;;;11.75;6.65;;;25.30;34.20;;;;;;6162434;28;80309;-69
2022/03/22 12:56:22;;;;;;;10.18;6.18;;;25.40;34.00;;;;;;6162057;28;80417;-67
2022/03/22 12:59:23;;;;;;;12.40;6.85;;;25.30;33.80;;;;;;6160647;28;81654;-68
2022/03/22 13:02:23;;;;;;;9.00;6.55;;;25.40;34.00;;;;;;6152403;28;80640;-68
2022/03/22 13:05:24;;;;;;;11.88;6.65;;;25.30;33.90;;;;;;6156058;28;80429;-66
2022/03/22 13:08:26;;;;;;;10.63;6.70;;;25.30;33.90;;;;;;6160872;28;80721;-68
2022/03/22 13:11:26;;;;;;;12.13;6.30;;;25.30;34.10;;;;;;6151194;28;81726;-67
2022/03/22 13:17:46;;;;;;;11.52;6.15;;;25.30;34.40;;;;;;6154114;28;80929;-69
2022/03/22 13:20:47;;;;;;;20.13;7.53;;;25.40;34.70;;;;;;6157963;28;80796;-69
2022/03/22 13:23:47;;;;;;;21.17;7.90;;;25.30;34.80;;;;;;6156763;28;80337;-68
2022/03/22 13:26:48;;;;;;;36.63;8.52;;;25.30;35.10;;;;;;6161332;28;82271;-68
2022/03/22 13:29:48;;;;;;;36.40;9.85;;;25.40;35.40;;;;;;6156394;28;81481;-68
2022/03/22 13:32:49;;;;;;;21.85;8.57;;;25.40;35.60;;;;;;6147931;28;80644;-67
2022/03/22 13:35:49;;;;;;;20.20;8.00;;;25.40;35.70;;;;;;6146365;28;80354;-68
2022/03/22 13:38:50;;;;;;;17.40;7.10;;;25.40;35.70;;;;;;6157447;28;81712;-67
2022/03/22 13:41:50;;;;;;;23.23;7.18;;;25.50;35.90;;;;;;6147469;28;81862;-67
2022/03/22 13:44:51;;;;;;;18.77;7.30;;;25.50;36.00;;;;;;6150246;28;82197;-67
2022/03/22 13:47:52;;;;;;;15.75;7.00;;;25.50;36.00;;;;;;6146016;28;80417;-66
2022/03/22 13:50:52;;;;;;;16.05;7.40;;;25.40;35.90;;;;;;6161460;28;80169;-65
2022/03/22 13:53:55;;;;;;;16.60;6.63;;;25.50;36.00;;;;;;6161764;28;80370;-68
2022/03/22 13:56:56;;;;;;;18.05;6.78;;;25.50;36.00;;;;;;6149242;28;81897;-68
2022/03/22 13:59:56;;;;;;;12.38;6.28;;;25.50;35.90;;;;;;6158860;28;80442;-72
2022/03/22 14:02:57;;;;;;;16.00;6.55;;;25.40;35.90;;;;;;6160985;28;80333;-67
2022/03/22 14:05:57;;;;;;;11.88;5.63;;;25.40;36.00;;;;;;6158115;28;80890;-65
2022/03/22 14:08:58;;;;;;;13.25;6.13;;;25.50;36.10;;;;;;6144958;28;80741;-67
2022/03/22 14:11:58;;;;;;;14.50;6.20;;;25.50;36.10;;;;;;6149157;28;80464;-67
2022/03/22 14:14:59;;;;;;;11.80;5.53;;;25.40;35.90;;;;;;6146981;28;80329;-67
2022/03/22 14:18:00;;;;;;;12.00;5.35;;;25.50;35.90;;;;;;6151209;28;80821;-68
2022/03/22 14:21:00;;;;;;;11.88;5.50;;;25.40;35.80;;;;;;6152617;28;80329;-69
2022/03/22 14:24:01;;;;;;;8.70;5.15;;;25.40;35.90;;;;;;6151115;28;82008;-67
2022/03/22 14:27:01;;;;;;;11.63;5.57;;;25.40;35.80;;;;;;6143078;28;80952;-68
2022/03/22 14:30:04;;;;;;;9.63;5.68;;;25.40;35.80;;;;;;6138308;28;80614;-67
2022/03/22 14:33:04;;;;;;;10.50;5.70;;;25.30;35.60;;;;;;6143041;28;82268;-68
2022/03/22 14:36:05;;;;;;;12.90;5.40;;;25.30;35.60;;;;;;6157075;28;80610;-64
2022/03/22 14:39:05;;;;;;;10.43;6.28;;;25.30;35.80;;;;;;6144935;28;80330;-66
2022/03/22 14:42:07;;;;;;;12.07;5.30;;;25.30;35.80;;;;;;6156565;28;80601;-64
2022/03/22 14:45:08;;;;;;;9.60;5.57;;;25.30;36.20;;;;;;6147225;28;81579;-66
2022/03/22 14:48:09;;;;;;;9.30;5.10;;;25.30;36.30;;;;;;6149315;28;80873;-66
2022/03/22 14:51:09;;;;;;;12.13;5.55;;;25.30;36.30;;;;;;6158341;28;80337;-67
2022/03/22 14:54:13;;;;;;;12.18;5.82;;;25.30;36.50;;;;;;6160536;28;87009;-65
2022/03/22 15:00:33;;;;;;;13.80;5.38;;;25.30;36.50;;;;;;6140048;28;80321;-66
2022/03/22 15:03:34;;;;;;;38.03;6.28;;;25.30;36.40;;;;;;6157350;28;80157;-66
2022/03/22 15:06:34;;;;;;;15.98;5.70;;;25.30;36.50;;;;;;6135724;28;80229;-66
2022/03/22 15:09:35;;;;;;;9.20;5.38;;;25.30;36.30;;;;;;6147508;28;80440;-69
2022/03/22 15:12:36;;;;;;;10.50;4.65;;;25.30;36.00;;;;;;6157875;28;83681;-64
2022/03/22 15:15:36;;;;;;;12.45;6.18;;;25.30;36.20;;;;;;6161023;28;80419;-65
2022/03/22 15:18:37;;;;;;;10.25;6.10;;;25.20;36.00;;;;;;6160359;28;80739;-64
2022/03/22 15:21:37;;;;;;;13.32;5.50;;;25.20;35.90;;;;;;6160516;28;81643;-65
2022/03/22 15:24:39;;;;;;;8.15;4.68;;;25.20;35.70;;;;;;6140964;28;80819;-65
2022/03/22 15:27:39;;;;;;;9.80;5.18;;;25.20;35.70;;;;;;6152787;28;80204;-65
2022/03/22 15:30:40;;;;;;;11.57;6.13;;;25.20;35.50;;;;;;6158945;28;81514;-65
2022/03/22 15:33:41;;;;;;;8.45;4.80;;;25.20;35.30;;;;;;6159421;28;80231;-65
2022/03/22 15:36:42;;;;;;;11.13;6.03;;;25.10;35.20;;;;;;6144951;28;80626;-65
2022/03/22 15:39:42;;;;;;;11.32;5.78;;;25.10;34.70;;;;;;6147366;28;80430;-65
2022/03/22 15:42:43;;;;;;;10.98;5.65;;;25.10;34.80;;;;;;6147943;28;80652;-66
2022/03/22 15:45:43;;;;;;;10.52;6.13;;;25.10;34.80;;;;;;6152234;28;80510;-66
2022/03/22 15:48:44;;;;;;;10.15;5.50;;;25.10;34.70;;;;;;6141197;28;80924;-66
2022/03/22 15:51:45;;;;;;;8.13;5.55;;;25.00;34.60;;;;;;6159666;28;80868;-66
2022/03/22 15:54:46;;;;;;;13.27;6.30;;;25.00;34.70;;;;;;6155952;28;81120;-65
2022/03/22 15:57:46;;;;;;;12.82;6.38;;;25.00;34.70;;;;;;6135680;28;80555;-65
2022/03/22 16:00:48;;;;;;;13.73;5.78;;;25.00;34.60;;;;;;6145006;28;80662;-65